Mondango 3 — ZGDS — position and weather

sailwx.info

Track history (hours):
 
Tides and Currents Weather Stations Pressure Air Temp Water Temp Dewpoint Dewpoint Depression Visibility Wind Speed Wind Dir Waves Ship Positions

Mondango 3

Last reported at 2018-Jun-05 18:11 UTC. Time now 2018-Jun-19 06:58 UTC.
Position N 36°39' E 024°20'.
Warning: this ship's position is 13 days out of date.

Length 57 m; draft 4 m.

Type: Sailing vessel. MMSI: 319061300.

Date/timePositionNaut miles runAvg speedWind from/ knotsBaromVisibWave heightAir tempDewpointWater temp
2018-Jun-05 18:11N 36°39' E 024°20'0 0.0
2018-Jun-05 18:00N 36°39' E 024°20'0 0.0
2018-Jun-05 17:19N 36°39' E 024°20'0 0.0
2018-Jun-05 16:59N 36°39' E 024°20'0 0.0
2018-Jun-05 11:54N 36°39' E 024°20'41 4.0
2018-Jun-05 01:38N 37°03' E 025°01'110.8
2018-Jun-05 01:30N 37°04' E 025°02'1010.6
2018-Jun-05 00:31N 37°10' E 025°13'0 9.5
2018-Jun-05 00:30N 37°10' E 025°13'3 5.1
2018-Jun-05 00:00N 37°08' E 025°16'0 0.0
2018-Jun-04 23:30N 37°08' E 025°16'0 0.0
2018-Jun-04 22:57N 37°08' E 025°16'0 0.0
2018-Jun-04 22:30N 37°08' E 025°16'0 0.0
2018-Jun-04 22:00N 37°08' E 025°16'0 0.0
2018-Jun-04 21:30N 37°08' E 025°16'0 0.0
2018-Jun-04 21:00N 37°08' E 025°16'0 0.0
2018-Jun-04 20:30N 37°08' E 025°16'0 0.0
2018-Jun-04 20:00N 37°08' E 025°16'0 0.0
2018-Jun-04 19:30N 37°08' E 025°16'0 0.0
2018-Jun-04 19:00N 37°08' E 025°16'0 0.0
2018-Jun-04 18:24N 37°08' E 025°16'0 0.0
2018-Jun-04 18:00N 37°08' E 025°16'0 0.0
2018-Jun-04 17:30N 37°08' E 025°16'0 0.0
2018-Jun-04 17:00N 37°08' E 025°16'0 0.0
2018-Jun-04 16:27N 37°08' E 025°16'0 0.0
2018-Jun-04 15:57N 37°08' E 025°16'0 0.0
2018-Jun-04 15:30N 37°08' E 025°16'0 0.0
2018-Jun-04 15:00N 37°08' E 025°16'0 0.0
2018-Jun-04 14:30N 37°08' E 025°16'0 0.0
2018-Jun-04 14:00N 37°08' E 025°16'0 0.0
2018-Jun-04 13:27N 37°08' E 025°16'0 0.0
2018-Jun-04 13:00N 37°08' E 025°16'0 0.0
2018-Jun-04 12:30N 37°08' E 025°16'0 0.0
2018-Jun-04 12:00N 37°08' E 025°16'0 0.0
2018-Jun-04 11:30N 37°08' E 025°16'0 0.0
2018-Jun-04 11:00N 37°08' E 025°16'0 0.0
2018-Jun-04 10:30N 37°08' E 025°16'0 0.0
2018-Jun-04 10:00N 37°08' E 025°16'3 5.6
2018-Jun-04 09:30N 37°11' E 025°15'611.4
2018-Jun-04 09:00N 37°17' E 025°17'4 8.2
2018-Jun-04 08:30N 37°21' E 025°16'3 5.3
2018-Jun-04 08:00N 37°23' E 025°16'0 0.0
2018-Jun-04 07:27N 37°23' E 025°16'0 0.0
2018-Jun-04 07:00N 37°23' E 025°16'0 0.0
2018-Jun-04 06:24N 37°23' E 025°16'0 0.2
2018-Jun-04 06:00N 37°23' E 025°16'3 5.0
2018-Jun-04 05:30N 37°22' E 025°13'2 4.1
2018-Jun-04 05:00N 37°24' E 025°13'0 0.0
2018-Jun-04 04:15N 37°24' E 025°13'0 0.1
2018-Jun-04 03:57N 37°24' E 025°13'0 0.0
2018-Jun-04 03:24N 37°24' E 025°13'0 0.0
2018-Jun-04 02:45N 37°24' E 025°13'0 0.0
2018-Jun-04 02:18N 37°24' E 025°13'0 0.1
2018-Jun-04 02:00N 37°24' E 025°13'0 0.0
2018-Jun-04 01:12N 37°24' E 025°13'0 0.0
2018-Jun-04 00:48N 37°24' E 025°13'0 0.0
2018-Jun-04 00:27N 37°24' E 025°13'0 0.0
2018-Jun-03 23:21N 37°24' E 025°13'0 0.1
2018-Jun-03 23:00N 37°24' E 025°13'0 0.1
2018-Jun-03 22:30N 37°24' E 025°13'0 0.0
2018-Jun-03 20:21N 37°24' E 025°13'0 0.0
2018-Jun-03 19:57N 37°24' E 025°13'0 0.0
2018-Jun-03 19:24N 37°24' E 025°13'0 0.0
2018-Jun-03 18:57N 37°24' E 025°13'0 0.0
2018-Jun-03 17:51N 37°24' E 025°13'0 0.1
2018-Jun-03 17:30N 37°24' E 025°13'0 0.0
2018-Jun-03 16:57N 37°24' E 025°13'0 0.0
2018-Jun-03 16:24N 37°24' E 025°13'0 0.0
2018-Jun-03 15:57N 37°24' E 025°13'0 0.0
2018-Jun-03 15:30N 37°24' E 025°13'0 0.0
2018-Jun-03 15:00N 37°24' E 025°13'2 3.2
2018-Jun-03 14:30N 37°22' E 025°12'5 9.9
2018-Jun-03 14:00N 37°25' E 025°07'7 8.8
2018-Jun-03 13:13N 37°27' E 024°58'1 3.8
2018-Jun-03 13:01N 37°27' E 024°58'1 1.2
2018-Jun-03 12:30N 37°26' E 024°57'0 0.4
2018-Jun-03 12:00N 37°26' E 024°57'0 0.0
2018-Jun-03 11:30N 37°26' E 024°57'0 0.5
2018-Jun-03 11:01N 37°26' E 024°57'3 6.6
2018-Jun-03 10:30N 37°23' E 024°56'0 0.6
2018-Jun-03 10:00N 37°23' E 024°56'0 0.0
2018-Jun-03 09:30N 37°23' E 024°56'1 2.4
2018-Jun-03 09:00N 37°22' E 024°55'4 7.3
2018-Jun-03 08:30N 37°24' E 024°51'3 6.9
2018-Jun-03 08:00N 37°25' E 024°47'48 2.1
2018-Jun-02 09:03N 37°41' E 023°50'0 3.3
2018-Jun-02 08:58N 37°41' E 023°49'5 9.8
2018-Jun-02 08:25N 37°46' E 023°47'4 9.0
2018-Jun-02 08:00N 37°49' E 023°44'4 7.9
2018-Jun-02 07:30N 37°53' E 023°42'3 7.0
2018-Jun-02 07:00N 37°56' E 023°40'0 0.8
2018-Jun-02 06:30N 37°56' E 023°39'0 0.0
2018-Jun-02 06:00N 37°56' E 023°39'0 0.0
2018-Jun-02 05:30N 37°56' E 023°39'0 0.0
2018-Jun-02 05:00N 37°56' E 023°39'0 0.0
2018-Jun-02 04:30N 37°56' E 023°39'0 0.0
2018-Jun-02 04:00N 37°56' E 023°39'0 0.0
2018-Jun-02 03:30N 37°56' E 023°39'0 0.0
2018-Jun-02 03:00N 37°56' E 023°39'0 0.0
2018-Jun-02 02:30N 37°56' E 023°39'0 0.0
2018-Jun-02 02:00N 37°56' E 023°39'0 0.0
2018-Jun-02 01:30N 37°56' E 023°39'0 0.0
2018-Jun-02 01:00N 37°56' E 023°39'0 0.0
2018-Jun-02 00:30N 37°56' E 023°39'0 0.0
2018-Jun-02 00:00N 37°56' E 023°39'0 0.0
2018-Jun-01 23:30N 37°56' E 023°39'0 0.0
2018-Jun-01 23:00N 37°56' E 023°39'0 0.0
2018-Jun-01 22:30N 37°56' E 023°39'0 0.0
2018-Jun-01 22:00N 37°56' E 023°39'0 0.0
2018-Jun-01 21:30N 37°56' E 023°39'0 0.0
2018-Jun-01 21:00N 37°56' E 023°39'0 0.0
2018-Jun-01 20:30N 37°56' E 023°39'0 0.0
2018-Jun-01 20:00N 37°56' E 023°39'0 0.0
2018-Jun-01 19:30N 37°56' E 023°39'0 0.0
2018-Jun-01 19:00N 37°56' E 023°39'0 0.0
2018-Jun-01 18:30N 37°56' E 023°39'0 0.0
2018-Jun-01 18:00N 37°56' E 023°39'0 0.0
2018-Jun-01 17:30N 37°56' E 023°39'0 0.0
2018-Jun-01 17:00N 37°56' E 023°39'0 0.0
2018-Jun-01 16:30N 37°56' E 023°39'0 0.0
2018-Jun-01 16:00N 37°56' E 023°39'0 0.0
2018-Jun-01 15:30N 37°56' E 023°39'0 0.0
2018-Jun-01 15:00N 37°56' E 023°39'0 0.0
2018-Jun-01 14:30N 37°56' E 023°39'0 0.0
2018-Jun-01 13:57N 37°56' E 023°39'0 0.0
2018-Jun-01 13:30N 37°56' E 023°39'0 0.0
2018-Jun-01 13:00N 37°56' E 023°39'0 0.0
2018-Jun-01 12:30N 37°56' E 023°39'0 0.0
2018-Jun-01 12:00N 37°56' E 023°39'0 0.0
2018-Jun-01 11:30N 37°56' E 023°39'0 0.0
2018-Jun-01 11:00N 37°56' E 023°39'0 0.0
2018-Jun-01 10:30N 37°56' E 023°39'0 0.0
2018-Jun-01 10:00N 37°56' E 023°39'0 0.0
2018-Jun-01 09:30N 37°56' E 023°39'0 0.0
2018-Jun-01 09:00N 37°56' E 023°39'0 0.0
2018-Jun-01 08:30N 37°56' E 023°39'0 0.0
2018-Jun-01 08:00N 37°56' E 023°39'0 0.0
2018-Jun-01 07:30N 37°56' E 023°39'0 0.0
2018-Jun-01 07:00N 37°56' E 023°39'0 0.0
2018-Jun-01 06:30N 37°56' E 023°39'0 0.0
2018-Jun-01 06:00N 37°56' E 023°39'0 0.0
2018-Jun-01 05:27N 37°56' E 023°39'0 0.0
2018-Jun-01 05:00N 37°56' E 023°39'0 0.0
2018-Jun-01 04:27N 37°56' E 023°39'0 0.0
2018-Jun-01 04:00N 37°56' E 023°39'0 0.0
2018-Jun-01 03:30N 37°56' E 023°39'0 0.0
2018-Jun-01 03:00N 37°56' E 023°39'0 0.0
2018-Jun-01 02:30N 37°56' E 023°39'0 0.0
2018-Jun-01 02:00N 37°56' E 023°39'0 0.0
2018-Jun-01 01:30N 37°56' E 023°39'0 0.0
2018-Jun-01 01:00N 37°56' E 023°39'0 0.0
2018-Jun-01 00:30N 37°56' E 023°39'0 0.0
2018-Jun-01 00:00N 37°56' E 023°39'0 0.0
2018-May-31 23:30N 37°56' E 023°39'0 0.0
2018-May-31 22:57N 37°56' E 023°39'0 0.0
2018-May-31 22:30N 37°56' E 023°39'0 0.0
2018-May-31 22:00N 37°56' E 023°39'0 0.0
2018-May-31 21:30N 37°56' E 023°39'0 0.0
2018-May-31 21:00N 37°56' E 023°39'0 0.0
2018-May-31 20:30N 37°56' E 023°39'0 0.0
2018-May-31 20:00N 37°56' E 023°39'0 0.0
2018-May-31 19:30N 37°56' E 023°39'0 0.0
2018-May-31 19:00N 37°56' E 023°39'0 0.0
2018-May-31 18:30N 37°56' E 023°39'0 0.0
2018-May-31 18:00N 37°56' E 023°39'0 0.0
2018-May-31 17:30N 37°56' E 023°39'0 0.0
2018-May-31 17:00N 37°56' E 023°39'0 0.0
2018-May-31 16:27N 37°56' E 023°39'0 0.0
2018-May-31 16:00N 37°56' E 023°39'0 0.0
2018-May-31 15:30N 37°56' E 023°39'0 0.0
2018-May-31 15:00N 37°56' E 023°39'0 0.0
2018-May-31 14:30N 37°56' E 023°39'0 0.0
2018-May-31 14:00N 37°56' E 023°39'0 0.0
2018-May-31 13:30N 37°56' E 023°39'0 0.0
2018-May-31 13:00N 37°56' E 023°39'0 0.0
2018-May-31 12:30N 37°56' E 023°39'0 0.0
2018-May-31 12:00N 37°56' E 023°39'0 0.0
2018-May-31 11:30N 37°56' E 023°39'0 0.0
2018-May-31 11:00N 37°56' E 023°39'0 0.0
2018-May-31 10:30N 37°56' E 023°39'0 0.0
2018-May-31 10:00N 37°56' E 023°39'0 0.0
2018-May-31 09:30N 37°56' E 023°39'0 0.0
2018-May-31 09:00N 37°56' E 023°39'0 0.0
2018-May-31 08:30N 37°56' E 023°39'0 0.0
2018-May-31 08:00N 37°56' E 023°39'0 0.0
2018-May-31 07:30N 37°56' E 023°39'0 0.0
2018-May-31 07:00N 37°56' E 023°39'0 0.0
2018-May-31 06:30N 37°56' E 023°39'0 0.0
2018-May-31 06:00N 37°56' E 023°39'0 0.0
2018-May-31 05:30N 37°56' E 023°39'0 0.0
2018-May-31 05:00N 37°56' E 023°39'0 0.0
2018-May-31 04:30N 37°56' E 023°39'0 0.0
2018-May-31 04:00N 37°56' E 023°39'0 0.0
2018-May-31 03:30N 37°56' E 023°39'0 0.0
2018-May-31 03:00N 37°56' E 023°39'0 0.0
2018-May-31 02:30N 37°56' E 023°39'0 0.0
2018-May-31 02:00N 37°56' E 023°39'0 0.0
2018-May-31 01:30N 37°56' E 023°39'0 0.0
2018-May-31 01:00N 37°56' E 023°39'0 0.0
2018-May-31 00:30N 37°56' E 023°39'0 0.0
2018-May-31 00:00N 37°56' E 023°39'0 0.0
2018-May-30 23:30N 37°56' E 023°39'0 0.0
2018-May-30 23:00N 37°56' E 023°39'0 0.0
2018-May-30 22:30N 37°56' E 023°39'0 0.0
2018-May-30 22:00N 37°56' E 023°39'0 0.0
2018-May-30 21:30N 37°56' E 023°39'0 0.0
2018-May-30 21:00N 37°56' E 023°39'0 0.0
2018-May-30 20:30N 37°56' E 023°39'0 0.0
2018-May-30 20:00N 37°56' E 023°39'0 0.0
2018-May-30 19:30N 37°56' E 023°39'0 0.0
2018-May-30 19:00N 37°56' E 023°39'0 0.0
2018-May-30 18:30N 37°56' E 023°39'0 0.0
2018-May-30 18:00N 37°56' E 023°39'0 0.0
2018-May-30 17:30N 37°56' E 023°39'0 0.0
2018-May-30 17:00N 37°56' E 023°39'0 0.0
2018-May-30 16:30N 37°56' E 023°39'0 0.0
2018-May-30 16:00N 37°56' E 023°39'0 0.0
2018-May-30 15:30N 37°56' E 023°39'0 0.0
2018-May-30 14:57N 37°56' E 023°39'0 0.0
2018-May-30 14:30N 37°56' E 023°39'0 0.0
2018-May-30 14:00N 37°56' E 023°39'0 0.0
2018-May-30 13:30N 37°56' E 023°39'0 0.0
2018-May-30 13:00N 37°56' E 023°39'0 0.0
2018-May-30 12:30N 37°56' E 023°39'0 0.0
2018-May-30 12:00N 37°56' E 023°39'0 0.0
2018-May-30 11:30N 37°56' E 023°39'0 0.0
2018-May-30 11:00N 37°56' E 023°39'0 0.0
2018-May-30 10:24N 37°56' E 023°39'0 0.0
2018-May-30 09:57N 37°56' E 023°39'0 0.0
2018-May-30 09:30N 37°56' E 023°39'0 0.0
2018-May-30 09:00N 37°56' E 023°39'0 0.0
2018-May-30 08:30N 37°56' E 023°39'0 0.0
2018-May-30 07:57N 37°56' E 023°39'0 0.0
2018-May-30 07:30N 37°56' E 023°39'0 0.0
2018-May-30 07:00N 37°56' E 023°39'0 0.0
2018-May-30 06:30N 37°56' E 023°39'0 0.0
2018-May-30 06:00N 37°56' E 023°39'0 0.0
2018-May-30 05:30N 37°56' E 023°39'0 0.0
2018-May-30 05:00N 37°56' E 023°39'0 0.0
2018-May-30 04:30N 37°56' E 023°39'0 0.0
2018-May-30 04:00N 37°56' E 023°39'0 0.0
2018-May-30 03:30N 37°56' E 023°39'0 0.0
2018-May-30 03:00N 37°56' E 023°39'0 0.0
2018-May-30 02:30N 37°56' E 023°39'0 0.0
2018-May-30 02:00N 37°56' E 023°39'0 0.0
2018-May-30 01:30N 37°56' E 023°39'0 0.0
2018-May-30 01:00N 37°56' E 023°39'0 0.0
2018-May-30 00:30N 37°56' E 023°39'0 0.0
2018-May-30 00:00N 37°56' E 023°39'0 0.0
2018-May-29 23:30N 37°56' E 023°39'0 0.0
2018-May-29 23:00N 37°56' E 023°39'0 0.0
2018-May-29 22:27N 37°56' E 023°39'0 0.0
2018-May-29 22:00N 37°56' E 023°39'0 0.0
2018-May-29 21:30N 37°56' E 023°39'0 0.0
2018-May-29 21:00N 37°56' E 023°39'0 0.0
2018-May-29 20:30N 37°56' E 023°39'0 0.0
2018-May-29 20:00N 37°56' E 023°39'0 0.0
2018-May-29 19:27N 37°56' E 023°39'0 0.0
2018-May-29 19:00N 37°56' E 023°39'0 0.0
2018-May-29 18:30N 37°56' E 023°39'0 0.0
2018-May-29 18:00N 37°56' E 023°39'0 0.0
2018-May-29 17:27N 37°56' E 023°39'0 0.0
2018-May-29 17:00N 37°56' E 023°39'0 0.0
2018-May-29 16:30N 37°56' E 023°39'0 0.0
2018-May-29 16:00N 37°56' E 023°39'0 0.0
2018-May-29 15:30N 37°56' E 023°39'0 0.0
2018-May-29 15:00N 37°56' E 023°39'0 0.0
2018-May-29 14:30N 37°56' E 023°39'0 0.0
2018-May-29 14:00N 37°56' E 023°39'0 0.0
2018-May-29 13:30N 37°56' E 023°39'0 0.0
2018-May-29 13:00N 37°56' E 023°39'0 0.0
2018-May-29 12:24N 37°56' E 023°39'0 0.0
2018-May-29 12:00N 37°56' E 023°39'0 0.0
2018-May-29 11:30N 37°56' E 023°39'0 0.0
2018-May-29 11:00N 37°56' E 023°39'0 0.0
2018-May-29 10:30N 37°56' E 023°39'0 0.0
2018-May-29 10:00N 37°56' E 023°39'0 0.0
2018-May-29 09:30N 37°56' E 023°39'0 0.0
2018-May-29 09:00N 37°56' E 023°39'0 0.0
2018-May-29 08:30N 37°56' E 023°39'0 0.0
2018-May-29 08:00N 37°56' E 023°39'0 0.0
2018-May-29 07:30N 37°56' E 023°39'0 0.0
2018-May-29 07:00N 37°56' E 023°39'0 0.0
2018-May-29 06:30N 37°56' E 023°39'1 1.8
2018-May-29 06:00N 37°55' E 023°40'5 9.9
2018-May-29 05:30N 37°50' E 023°39'510.7
2018-May-29 05:00N 37°45' E 023°42'  
Track history (hours):
 
Tides and Currents Weather Stations Pressure Air Temp Water Temp Dewpoint Dewpoint Depression Visibility Wind Speed Wind Dir Waves Ship Positions

Mondango 3

Last reported at 2018-Jun-05 18:11 UTC. Time now 2018-Jun-19 06:58 UTC.
Position N 36°39' E 024°20'.
Warning: this ship's position is 13 days out of date.

Length 57 m; draft 4 m.

Type: Sailing vessel. MMSI: 319061300.

Date/timePositionNaut miles runAvg speedWind from/ knotsBaromVisibWave heightAir tempDewpointWater temp
2018-Jun-05 18:11N 36°39' E 024°20'0 0.0
2018-Jun-05 18:00N 36°39' E 024°20'0 0.0
2018-Jun-05 17:19N 36°39' E 024°20'0 0.0
2018-Jun-05 16:59N 36°39' E 024°20'0 0.0
2018-Jun-05 11:54N 36°39' E 024°20'41 4.0
2018-Jun-05 01:38N 37°03' E 025°01'110.8
2018-Jun-05 01:30N 37°04' E 025°02'1010.6
2018-Jun-05 00:31N 37°10' E 025°13'0 9.5
2018-Jun-05 00:30N 37°10' E 025°13'3 5.1
2018-Jun-05 00:00N 37°08' E 025°16'0 0.0
2018-Jun-04 23:30N 37°08' E 025°16'0 0.0
2018-Jun-04 22:57N 37°08' E 025°16'0 0.0
2018-Jun-04 22:30N 37°08' E 025°16'0 0.0
2018-Jun-04 22:00N 37°08' E 025°16'0 0.0
2018-Jun-04 21:30N 37°08' E 025°16'0 0.0
2018-Jun-04 21:00N 37°08' E 025°16'0 0.0
2018-Jun-04 20:30N 37°08' E 025°16'0 0.0
2018-Jun-04 20:00N 37°08' E 025°16'0 0.0
2018-Jun-04 19:30N 37°08' E 025°16'0 0.0
2018-Jun-04 19:00N 37°08' E 025°16'0 0.0
2018-Jun-04 18:24N 37°08' E 025°16'0 0.0
2018-Jun-04 18:00N 37°08' E 025°16'0 0.0
2018-Jun-04 17:30N 37°08' E 025°16'0 0.0
2018-Jun-04 17:00N 37°08' E 025°16'0 0.0
2018-Jun-04 16:27N 37°08' E 025°16'0 0.0
2018-Jun-04 15:57N 37°08' E 025°16'0 0.0
2018-Jun-04 15:30N 37°08' E 025°16'0 0.0
2018-Jun-04 15:00N 37°08' E 025°16'0 0.0
2018-Jun-04 14:30N 37°08' E 025°16'0 0.0
2018-Jun-04 14:00N 37°08' E 025°16'0 0.0
2018-Jun-04 13:27N 37°08' E 025°16'0 0.0
2018-Jun-04 13:00N 37°08' E 025°16'0 0.0
2018-Jun-04 12:30N 37°08' E 025°16'0 0.0
2018-Jun-04 12:00N 37°08' E 025°16'0 0.0
2018-Jun-04 11:30N 37°08' E 025°16'0 0.0
2018-Jun-04 11:00N 37°08' E 025°16'0 0.0
2018-Jun-04 10:30N 37°08' E 025°16'0 0.0
2018-Jun-04 10:00N 37°08' E 025°16'3 5.6
2018-Jun-04 09:30N 37°11' E 025°15'611.4
2018-Jun-04 09:00N 37°17' E 025°17'4 8.2
2018-Jun-04 08:30N 37°21' E 025°16'3 5.3
2018-Jun-04 08:00N 37°23' E 025°16'0 0.0
2018-Jun-04 07:27N 37°23' E 025°16'0 0.0
2018-Jun-04 07:00N 37°23' E 025°16'0 0.0
2018-Jun-04 06:24N 37°23' E 025°16'0 0.2
2018-Jun-04 06:00N 37°23' E 025°16'3 5.0
2018-Jun-04 05:30N 37°22' E 025°13'2 4.1
2018-Jun-04 05:00N 37°24' E 025°13'0 0.0
2018-Jun-04 04:15N 37°24' E 025°13'0 0.1
2018-Jun-04 03:57N 37°24' E 025°13'0 0.0
2018-Jun-04 03:24N 37°24' E 025°13'0 0.0
2018-Jun-04 02:45N 37°24' E 025°13'0 0.0
2018-Jun-04 02:18N 37°24' E 025°13'0 0.1
2018-Jun-04 02:00N 37°24' E 025°13'0 0.0
2018-Jun-04 01:12N 37°24' E 025°13'0 0.0
2018-Jun-04 00:48N 37°24' E 025°13'0 0.0
2018-Jun-04 00:27N 37°24' E 025°13'0 0.0
2018-Jun-03 23:21N 37°24' E 025°13'0 0.1
2018-Jun-03 23:00N 37°24' E 025°13'0 0.1
2018-Jun-03 22:30N 37°24' E 025°13'0 0.0
2018-Jun-03 20:21N 37°24' E 025°13'0 0.0
2018-Jun-03 19:57N 37°24' E 025°13'0 0.0
2018-Jun-03 19:24N 37°24' E 025°13'0 0.0
2018-Jun-03 18:57N 37°24' E 025°13'0 0.0
2018-Jun-03 17:51N 37°24' E 025°13'0 0.1
2018-Jun-03 17:30N 37°24' E 025°13'0 0.0
2018-Jun-03 16:57N 37°24' E 025°13'0 0.0
2018-Jun-03 16:24N 37°24' E 025°13'0 0.0
2018-Jun-03 15:57N 37°24' E 025°13'0 0.0
2018-Jun-03 15:30N 37°24' E 025°13'0 0.0
2018-Jun-03 15:00N 37°24' E 025°13'2 3.2
2018-Jun-03 14:30N 37°22' E 025°12'5 9.9
2018-Jun-03 14:00N 37°25' E 025°07'7 8.8
2018-Jun-03 13:13N 37°27' E 024°58'1 3.8
2018-Jun-03 13:01N 37°27' E 024°58'1 1.2
2018-Jun-03 12:30N 37°26' E 024°57'0 0.4
2018-Jun-03 12:00N 37°26' E 024°57'0 0.0
2018-Jun-03 11:30N 37°26' E 024°57'0 0.5
2018-Jun-03 11:01N 37°26' E 024°57'3 6.6
2018-Jun-03 10:30N 37°23' E 024°56'0 0.6
2018-Jun-03 10:00N 37°23' E 024°56'0 0.0
2018-Jun-03 09:30N 37°23' E 024°56'1 2.4
2018-Jun-03 09:00N 37°22' E 024°55'4 7.3
2018-Jun-03 08:30N 37°24' E 024°51'3 6.9
2018-Jun-03 08:00N 37°25' E 024°47'48 2.1
2018-Jun-02 09:03N 37°41' E 023°50'0 3.3
2018-Jun-02 08:58N 37°41' E 023°49'5 9.8
2018-Jun-02 08:25N 37°46' E 023°47'4 9.0
2018-Jun-02 08:00N 37°49' E 023°44'4 7.9
2018-Jun-02 07:30N 37°53' E 023°42'3 7.0
2018-Jun-02 07:00N 37°56' E 023°40'0 0.8
2018-Jun-02 06:30N 37°56' E 023°39'0 0.0
2018-Jun-02 06:00N 37°56' E 023°39'0 0.0
2018-Jun-02 05:30N 37°56' E 023°39'0 0.0
2018-Jun-02 05:00N 37°56' E 023°39'0 0.0
2018-Jun-02 04:30N 37°56' E 023°39'0 0.0
2018-Jun-02 04:00N 37°56' E 023°39'0 0.0
2018-Jun-02 03:30N 37°56' E 023°39'0 0.0
2018-Jun-02 03:00N 37°56' E 023°39'0 0.0
2018-Jun-02 02:30N 37°56' E 023°39'0 0.0
2018-Jun-02 02:00N 37°56' E 023°39'0 0.0
2018-Jun-02 01:30N 37°56' E 023°39'0 0.0
2018-Jun-02 01:00N 37°56' E 023°39'0 0.0
2018-Jun-02 00:30N 37°56' E 023°39'0 0.0
2018-Jun-02 00:00N 37°56' E 023°39'0 0.0
2018-Jun-01 23:30N 37°56' E 023°39'0 0.0
2018-Jun-01 23:00N 37°56' E 023°39'0 0.0
2018-Jun-01 22:30N 37°56' E 023°39'0 0.0
2018-Jun-01 22:00N 37°56' E 023°39'0 0.0
2018-Jun-01 21:30N 37°56' E 023°39'0 0.0
2018-Jun-01 21:00N 37°56' E 023°39'0 0.0
2018-Jun-01 20:30N 37°56' E 023°39'0 0.0
2018-Jun-01 20:00N 37°56' E 023°39'0 0.0
2018-Jun-01 19:30N 37°56' E 023°39'0 0.0
2018-Jun-01 19:00N 37°56' E 023°39'0 0.0
2018-Jun-01 18:30N 37°56' E 023°39'0 0.0
2018-Jun-01 18:00N 37°56' E 023°39'0 0.0
2018-Jun-01 17:30N 37°56' E 023°39'0 0.0
2018-Jun-01 17:00N 37°56' E 023°39'0 0.0
2018-Jun-01 16:30N 37°56' E 023°39'0 0.0
2018-Jun-01 16:00N 37°56' E 023°39'0 0.0
2018-Jun-01 15:30N 37°56' E 023°39'0 0.0
2018-Jun-01 15:00N 37°56' E 023°39'0 0.0
2018-Jun-01 14:30N 37°56' E 023°39'0 0.0
2018-Jun-01 13:57N 37°56' E 023°39'0 0.0
2018-Jun-01 13:30N 37°56' E 023°39'0 0.0
2018-Jun-01 13:00N 37°56' E 023°39'0 0.0
2018-Jun-01 12:30N 37°56' E 023°39'0 0.0
2018-Jun-01 12:00N 37°56' E 023°39'0 0.0
2018-Jun-01 11:30N 37°56' E 023°39'0 0.0
2018-Jun-01 11:00N 37°56' E 023°39'0 0.0
2018-Jun-01 10:30N 37°56' E 023°39'0 0.0
2018-Jun-01 10:00N 37°56' E 023°39'0 0.0
2018-Jun-01 09:30N 37°56' E 023°39'0 0.0
2018-Jun-01 09:00N 37°56' E 023°39'0 0.0
2018-Jun-01 08:30N 37°56' E 023°39'0 0.0
2018-Jun-01 08:00N 37°56' E 023°39'0 0.0
2018-Jun-01 07:30N 37°56' E 023°39'0 0.0
2018-Jun-01 07:00N 37°56' E 023°39'0 0.0
2018-Jun-01 06:30N 37°56' E 023°39'0 0.0
2018-Jun-01 06:00N 37°56' E 023°39'0 0.0
2018-Jun-01 05:27N 37°56' E 023°39'0 0.0
2018-Jun-01 05:00N 37°56' E 023°39'0 0.0
2018-Jun-01 04:27N 37°56' E 023°39'0 0.0
2018-Jun-01 04:00N 37°56' E 023°39'0 0.0
2018-Jun-01 03:30N 37°56' E 023°39'0 0.0
2018-Jun-01 03:00N 37°56' E 023°39'0 0.0
2018-Jun-01 02:30N 37°56' E 023°39'0 0.0
2018-Jun-01 02:00N 37°56' E 023°39'0 0.0
2018-Jun-01 01:30N 37°56' E 023°39'0 0.0
2018-Jun-01 01:00N 37°56' E 023°39'0 0.0
2018-Jun-01 00:30N 37°56' E 023°39'0 0.0
2018-Jun-01 00:00N 37°56' E 023°39'0 0.0
2018-May-31 23:30N 37°56' E 023°39'0 0.0
2018-May-31 22:57N 37°56' E 023°39'0 0.0
2018-May-31 22:30N 37°56' E 023°39'0 0.0
2018-May-31 22:00N 37°56' E 023°39'0 0.0
2018-May-31 21:30N 37°56' E 023°39'0 0.0
2018-May-31 21:00N 37°56' E 023°39'0 0.0
2018-May-31 20:30N 37°56' E 023°39'0 0.0
2018-May-31 20:00N 37°56' E 023°39'0 0.0
2018-May-31 19:30N 37°56' E 023°39'0 0.0
2018-May-31 19:00N 37°56' E 023°39'0 0.0
2018-May-31 18:30N 37°56' E 023°39'0 0.0
2018-May-31 18:00N 37°56' E 023°39'0 0.0
2018-May-31 17:30N 37°56' E 023°39'0 0.0
2018-May-31 17:00N 37°56' E 023°39'0 0.0
2018-May-31 16:27N 37°56' E 023°39'0 0.0
2018-May-31 16:00N 37°56' E 023°39'0 0.0
2018-May-31 15:30N 37°56' E 023°39'0 0.0
2018-May-31 15:00N 37°56' E 023°39'0 0.0
2018-May-31 14:30N 37°56' E 023°39'0 0.0
2018-May-31 14:00N 37°56' E 023°39'0 0.0
2018-May-31 13:30N 37°56' E 023°39'0 0.0
2018-May-31 13:00N 37°56' E 023°39'0 0.0
2018-May-31 12:30N 37°56' E 023°39'0 0.0
2018-May-31 12:00N 37°56' E 023°39'0 0.0
2018-May-31 11:30N 37°56' E 023°39'0 0.0
2018-May-31 11:00N 37°56' E 023°39'0 0.0
2018-May-31 10:30N 37°56' E 023°39'0 0.0
2018-May-31 10:00N 37°56' E 023°39'0 0.0
2018-May-31 09:30N 37°56' E 023°39'0 0.0
2018-May-31 09:00N 37°56' E 023°39'0 0.0
2018-May-31 08:30N 37°56' E 023°39'0 0.0
2018-May-31 08:00N 37°56' E 023°39'0 0.0
2018-May-31 07:30N 37°56' E 023°39'0 0.0
2018-May-31 07:00N 37°56' E 023°39'0 0.0
2018-May-31 06:30N 37°56' E 023°39'0 0.0
2018-May-31 06:00N 37°56' E 023°39'0 0.0
2018-May-31 05:30N 37°56' E 023°39'0 0.0
2018-May-31 05:00N 37°56' E 023°39'0 0.0
2018-May-31 04:30N 37°56' E 023°39'0 0.0
2018-May-31 04:00N 37°56' E 023°39'0 0.0
2018-May-31 03:30N 37°56' E 023°39'0 0.0
2018-May-31 03:00N 37°56' E 023°39'0 0.0
2018-May-31 02:30N 37°56' E 023°39'0 0.0
2018-May-31 02:00N 37°56' E 023°39'0 0.0
2018-May-31 01:30N 37°56' E 023°39'0 0.0
2018-May-31 01:00N 37°56' E 023°39'0 0.0
2018-May-31 00:30N 37°56' E 023°39'0 0.0
2018-May-31 00:00N 37°56' E 023°39'0 0.0
2018-May-30 23:30N 37°56' E 023°39'0 0.0
2018-May-30 23:00N 37°56' E 023°39'0 0.0
2018-May-30 22:30N 37°56' E 023°39'0 0.0
2018-May-30 22:00N 37°56' E 023°39'0 0.0
2018-May-30 21:30N 37°56' E 023°39'0 0.0
2018-May-30 21:00N 37°56' E 023°39'0 0.0
2018-May-30 20:30N 37°56' E 023°39'0 0.0
2018-May-30 20:00N 37°56' E 023°39'0 0.0
2018-May-30 19:30N 37°56' E 023°39'0 0.0
2018-May-30 19:00N 37°56' E 023°39'0 0.0
2018-May-30 18:30N 37°56' E 023°39'0 0.0
2018-May-30 18:00N 37°56' E 023°39'0 0.0
2018-May-30 17:30N 37°56' E 023°39'0 0.0
2018-May-30 17:00N 37°56' E 023°39'0 0.0
2018-May-30 16:30N 37°56' E 023°39'0 0.0
2018-May-30 16:00N 37°56' E 023°39'0 0.0
2018-May-30 15:30N 37°56' E 023°39'0 0.0
2018-May-30 14:57N 37°56' E 023°39'0 0.0
2018-May-30 14:30N 37°56' E 023°39'0 0.0
2018-May-30 14:00N 37°56' E 023°39'0 0.0
2018-May-30 13:30N 37°56' E 023°39'0 0.0
2018-May-30 13:00N 37°56' E 023°39'0 0.0
2018-May-30 12:30N 37°56' E 023°39'0 0.0
2018-May-30 12:00N 37°56' E 023°39'0 0.0
2018-May-30 11:30N 37°56' E 023°39'0 0.0
2018-May-30 11:00N 37°56' E 023°39'0 0.0
2018-May-30 10:24N 37°56' E 023°39'0 0.0
2018-May-30 09:57N 37°56' E 023°39'0 0.0
2018-May-30 09:30N 37°56' E 023°39'0 0.0
2018-May-30 09:00N 37°56' E 023°39'0 0.0
2018-May-30 08:30N 37°56' E 023°39'0 0.0
2018-May-30 07:57N 37°56' E 023°39'0 0.0
2018-May-30 07:30N 37°56' E 023°39'0 0.0
2018-May-30 07:00N 37°56' E 023°39'0 0.0
2018-May-30 06:30N 37°56' E 023°39'0 0.0
2018-May-30 06:00N 37°56' E 023°39'0 0.0
2018-May-30 05:30N 37°56' E 023°39'0 0.0
2018-May-30 05:00N 37°56' E 023°39'0 0.0
2018-May-30 04:30N 37°56' E 023°39'0 0.0
2018-May-30 04:00N 37°56' E 023°39'0 0.0
2018-May-30 03:30N 37°56' E 023°39'0 0.0
2018-May-30 03:00N 37°56' E 023°39'0 0.0
2018-May-30 02:30N 37°56' E 023°39'0 0.0
2018-May-30 02:00N 37°56' E 023°39'0 0.0
2018-May-30 01:30N 37°56' E 023°39'0 0.0
2018-May-30 01:00N 37°56' E 023°39'0 0.0
2018-May-30 00:30N 37°56' E 023°39'0 0.0
2018-May-30 00:00N 37°56' E 023°39'0 0.0
2018-May-29 23:30N 37°56' E 023°39'0 0.0
2018-May-29 23:00N 37°56' E 023°39'0 0.0
2018-May-29 22:27N 37°56' E 023°39'0 0.0
2018-May-29 22:00N 37°56' E 023°39'0 0.0
2018-May-29 21:30N 37°56' E 023°39'0 0.0
2018-May-29 21:00N 37°56' E 023°39'0 0.0
2018-May-29 20:30N 37°56' E 023°39'0 0.0
2018-May-29 20:00N 37°56' E 023°39'0 0.0
2018-May-29 19:27N 37°56' E 023°39'0 0.0
2018-May-29 19:00N 37°56' E 023°39'0 0.0
2018-May-29 18:30N 37°56' E 023°39'0 0.0
2018-May-29 18:00N 37°56' E 023°39'0 0.0
2018-May-29 17:27N 37°56' E 023°39'0 0.0
2018-May-29 17:00N 37°56' E 023°39'0 0.0
2018-May-29 16:30N 37°56' E 023°39'0 0.0
2018-May-29 16:00N 37°56' E 023°39'0 0.0
2018-May-29 15:30N 37°56' E 023°39'0 0.0
2018-May-29 15:00N 37°56' E 023°39'0 0.0
2018-May-29 14:30N 37°56' E 023°39'0 0.0
2018-May-29 14:00N 37°56' E 023°39'0 0.0
2018-May-29 13:30N 37°56' E 023°39'0 0.0
2018-May-29 13:00N 37°56' E 023°39'0 0.0
2018-May-29 12:24N 37°56' E 023°39'0 0.0
2018-May-29 12:00N 37°56' E 023°39'0 0.0
2018-May-29 11:30N 37°56' E 023°39'0 0.0
2018-May-29 11:00N 37°56' E 023°39'0 0.0
2018-May-29 10:30N 37°56' E 023°39'0 0.0
2018-May-29 10:00N 37°56' E 023°39'0 0.0
2018-May-29 09:30N 37°56' E 023°39'0 0.0
2018-May-29 09:00N 37°56' E 023°39'0 0.0
2018-May-29 08:30N 37°56' E 023°39'0 0.0
2018-May-29 08:00N 37°56' E 023°39'0 0.0
2018-May-29 07:30N 37°56' E 023°39'0 0.0
2018-May-29 07:00N 37°56' E 023°39'0 0.0
2018-May-29 06:30N 37°56' E 023°39'1 1.8
2018-May-29 06:00N 37°55' E 023°40'5 9.9
2018-May-29 05:30N 37°50' E 023°39'510.7
2018-May-29 05:00N 37°45' E 023°42'  

Dump ship's entire track history